createdAt,value
2018-06-23T00:00:08.049Z,23.1
2018-06-23T00:00:58.368Z,23.1
2018-06-23T00:01:47.937Z,23.1
2018-06-23T00:02:38.321Z,23.1
2018-06-23T00:03:28.339Z,23.1
2018-06-23T00:04:18.152Z,23.1
2018-06-23T00:05:07.582Z,23.1
2018-06-23T00:05:58.530Z,23.1
2018-06-23T00:06:47.818Z,23.1
2018-06-23T00:07:38.168Z,23.1
2018-06-23T00:08:28.132Z,23.1
2018-06-23T00:09:18.782Z,23.1
2018-06-23T00:10:09.083Z,23.1
2018-06-23T00:10:58.625Z,23.1
2018-06-23T00:11:48.648Z,23.1
2018-06-23T00:12:38.690Z,23.1
2018-06-23T00:13:28.245Z,23.1
2018-06-23T00:14:18.349Z,23.1
2018-06-23T00:15:08.910Z,23.1
2018-06-23T00:15:59.015Z,23.1
2018-06-23T00:16:48.806Z,23.1
2018-06-23T00:17:39.473Z,23.1
2018-06-23T00:18:28.617Z,23.1
2018-06-23T00:19:19.278Z,23.1
2018-06-23T00:20:09.601Z,23.1
2018-06-23T00:20:58.807Z,23.1
2018-06-23T00:21:49.471Z,23.1
2018-06-23T00:22:39.808Z,23.1
2018-06-23T00:23:28.459Z,23.1
2018-06-23T00:24:19.939Z,23.1
2018-06-23T00:25:09.412Z,23.1
2018-06-23T00:26:00.046Z,23.1
2018-06-23T00:26:49.503Z,23.1
2018-06-23T00:27:39.059Z,23.1
2018-06-23T00:28:29.693Z,23.1
2018-06-23T00:29:20.027Z,23.1
2018-06-23T00:30:09.802Z,23.1
2018-06-23T00:31:00.129Z,23.1
2018-06-23T00:31:50.540Z,23.1
2018-06-23T00:32:40.231Z,23.1
2018-06-23T00:33:29.534Z,23.1
2018-06-23T00:34:20.371Z,23.1
2018-06-23T00:35:10.794Z,23.1
2018-06-23T00:36:01.061Z,23.1
2018-06-23T00:36:51.156Z,23.1
2018-06-23T00:37:40.946Z,23.1
2018-06-23T00:38:30.448Z,23.1
2018-06-23T00:39:20.500Z,23.1
2018-06-23T00:40:10.834Z,23.1
2018-06-23T00:41:00.340Z,23.1
2018-06-23T00:41:50.660Z,23.1
2018-06-23T00:42:41.021Z,23.1
2018-06-23T00:43:31.052Z,23.1
2018-06-23T00:44:21.713Z,23.1
2018-06-23T00:45:11.749Z,23
2018-06-23T00:46:01.817Z,23.1
2018-06-23T00:46:51.882Z,23.1
2018-06-23T00:47:41.694Z,23.1
2018-06-23T00:48:31.185Z,23
2018-06-23T00:49:20.989Z,23.1
2018-06-23T00:50:11.596Z,23.1
2018-06-23T00:51:01.648Z,23.1
2018-06-23T00:51:51.227Z,23.1
2018-06-23T00:52:41.501Z,23.1
2018-06-23T00:53:31.555Z,23
2018-06-23T00:54:21.762Z,23
2018-06-23T00:55:12.546Z,23
2018-06-23T00:56:01.254Z,23
2018-06-23T00:56:51.060Z,23.1
2018-06-23T00:57:42.761Z,23
2018-06-23T00:58:31.272Z,23.1
2018-06-23T00:59:22.611Z,23
2018-06-23T01:00:11.900Z,23.1
2018-06-23T01:01:02.979Z,23
2018-06-23T01:01:52.767Z,23
2018-06-23T01:02:42.621Z,23.1
2018-06-23T01:03:32.354Z,23
2018-06-23T01:04:23.179Z,23
2018-06-23T01:05:12.245Z,23.1
2018-06-23T01:06:02.257Z,23
2018-06-23T01:06:53.116Z,23
2018-06-23T01:07:41.589Z,23.1
2018-06-23T01:08:32.241Z,23
2018-06-23T01:09:22.991Z,23
2018-06-23T01:10:12.420Z,23
2018-06-23T01:11:02.647Z,23
2018-06-23T01:11:51.971Z,23
2018-06-23T01:12:41.961Z,23
2018-06-23T01:13:33.185Z,23
2018-06-23T01:14:22.975Z,23
2018-06-23T01:15:12.484Z,23
2018-06-23T01:16:04.145Z,23
2018-06-23T01:16:53.103Z,23
2018-06-23T01:17:43.761Z,23.1
2018-06-23T01:18:33.254Z,23
2018-06-23T01:19:23.361Z,23
2018-06-23T01:20:12.842Z,23
2018-06-23T01:21:02.633Z,23
2018-06-23T01:21:54.092Z,23
2018-06-23T01:22:43.925Z,23
2018-06-23T01:23:33.945Z,23
2018-06-23T01:24:23.752Z,23
2018-06-23T01:25:14.092Z,23
2018-06-23T01:26:04.104Z,23
2018-06-23T01:26:53.358Z,23
2018-06-23T01:27:44.558Z,23
2018-06-23T01:28:33.493Z,23
2018-06-23T01:29:23.830Z,23
2018-06-23T01:30:13.902Z,23
2018-06-23T01:31:04.519Z,23
2018-06-23T01:31:54.873Z,23
2018-06-23T01:32:44.299Z,23
2018-06-23T01:33:34.709Z,23
2018-06-23T01:34:25.019Z,23
2018-06-23T01:35:14.883Z,23
2018-06-23T01:36:05.189Z,23
2018-06-23T01:36:54.716Z,23
2018-06-23T01:37:44.730Z,23
2018-06-23T01:38:33.960Z,23
2018-06-23T01:39:24.622Z,23
2018-06-23T01:40:14.377Z,23
2018-06-23T01:41:05.272Z,22.9
2018-06-23T01:41:54.227Z,23
2018-06-23T01:42:44.001Z,23
2018-06-23T01:43:35.773Z,23
2018-06-23T01:44:25.831Z,23
2018-06-23T01:45:15.344Z,23
2018-06-23T01:46:04.826Z,23
2018-06-23T01:46:54.586Z,23
2018-06-23T01:47:44.376Z,23
2018-06-23T01:48:35.615Z,23
2018-06-23T01:49:25.662Z,22.9
2018-06-23T01:50:14.936Z,23
2018-06-23T01:51:05.844Z,23
2018-06-23T01:51:56.377Z,22.9
2018-06-23T01:52:45.353Z,23
2018-06-23T01:53:35.997Z,23
2018-06-23T01:54:25.179Z,23
2018-06-23T01:55:16.282Z,22.9
2018-06-23T01:56:06.876Z,22.9
2018-06-23T01:56:56.620Z,23
2018-06-23T01:57:47.320Z,23
2018-06-23T01:58:36.401Z,22.9
2018-06-23T01:59:26.659Z,23
2018-06-23T02:00:15.652Z,23
2018-06-23T02:01:07.037Z,22.9
2018-06-23T02:01:56.030Z,23
2018-06-23T02:02:47.769Z,23
2018-06-23T02:03:37.487Z,22.9
2018-06-23T02:04:27.049Z,22.9
2018-06-23T02:05:16.304Z,23
2018-06-23T02:06:06.094Z,22.9
2018-06-23T02:06:56.992Z,23
2018-06-23T02:07:46.437Z,22.9
2018-06-23T02:08:37.595Z,23
2018-06-23T02:09:26.317Z,23
2018-06-23T02:10:16.366Z,22.9
2018-06-23T02:11:07.655Z,22.9
2018-06-23T02:11:57.871Z,22.9
2018-06-23T02:12:47.278Z,22.9
2018-06-23T02:13:37.719Z,22.9
2018-06-23T02:14:28.340Z,22.9
2018-06-23T02:15:17.232Z,22.9
2018-06-23T02:16:07.341Z,22.9
2018-06-23T02:16:58.438Z,22.9
2018-06-23T02:17:48.038Z,22.9
2018-06-23T02:18:38.335Z,22.9
2018-06-23T02:19:27.655Z,22.9
2018-06-23T02:20:17.958Z,22.9
2018-06-23T02:21:08.334Z,22.9
2018-06-23T02:21:58.314Z,22.9
2018-06-23T02:22:49.250Z,22.9
2018-06-23T02:23:38.709Z,22.9
2018-06-23T02:24:28.628Z,22.9
2018-06-23T02:25:19.164Z,22.9
2018-06-23T02:26:08.871Z,22.9
2018-06-23T02:26:59.015Z,22.9
2018-06-23T02:27:49.328Z,22.9
2018-06-23T02:28:38.326Z,22.9
2018-06-23T02:29:29.046Z,22.9
2018-06-23T02:30:18.421Z,22.9
2018-06-23T02:31:09.432Z,22.9
2018-06-23T02:31:59.465Z,22.9
2018-06-23T02:32:48.860Z,22.9
2018-06-23T02:33:40.119Z,22.9
2018-06-23T02:34:29.289Z,22.9
2018-06-23T02:35:19.971Z,22.9
2018-06-23T02:36:09.679Z,22.9
2018-06-23T02:36:59.534Z,22.9
2018-06-23T02:37:50.179Z,22.9
2018-06-23T02:38:40.184Z,22.9
2018-06-23T02:39:28.926Z,22.9
2018-06-23T02:40:18.877Z,22.9
2018-06-23T02:41:09.544Z,22.9
2018-06-23T02:42:00.436Z,22.9
2018-06-23T02:42:50.467Z,22.9
2018-06-23T02:43:40.385Z,22.9
2018-06-23T02:44:30.307Z,22.9
2018-06-23T02:45:20.971Z,22.9
2018-06-23T02:46:10.732Z,22.9
2018-06-23T02:47:00.038Z,22.9
2018-06-23T02:47:50.297Z,22.9
2018-06-23T02:48:40.460Z,22.9
2018-06-23T02:49:30.719Z,22.9
2018-06-23T02:50:21.101Z,22.9
2018-06-23T02:51:09.850Z,22.9
2018-06-23T02:52:00.604Z,22.9
2018-06-23T02:52:51.140Z,22.9
2018-06-23T02:53:40.427Z,22.9
2018-06-23T02:54:30.840Z,22.9
2018-06-23T02:55:21.467Z,22.9
2018-06-23T02:56:11.255Z,22.9
2018-06-23T02:57:00.532Z,22.9
2018-06-23T02:57:50.296Z,22.9
2018-06-23T02:58:40.936Z,22.9
2018-06-23T02:59:31.203Z,22.9
2018-06-23T03:00:21.260Z,22.9
2018-06-23T03:01:11.155Z,22.9
2018-06-23T03:02:01.086Z,22.9
2018-06-23T03:02:51.565Z,22.9
2018-06-23T03:03:41.473Z,22.9
2018-06-23T03:04:30.522Z,22.9
2018-06-23T03:05:21.493Z,22.9
2018-06-23T03:06:12.030Z,22.9
2018-06-23T03:07:01.012Z,22.9
2018-06-23T03:07:52.663Z,22.9
2018-06-23T03:08:42.224Z,22.9
2018-06-23T03:09:31.762Z,22.9
2018-06-23T03:10:21.507Z,22.9
2018-06-23T03:11:11.592Z,22.9
2018-06-23T03:12:02.221Z,22.9
2018-06-23T03:12:52.601Z,22.9
2018-06-23T03:13:42.081Z,22.9
2018-06-23T03:14:31.608Z,22.9
2018-06-23T03:15:22.414Z,22.9
2018-06-23T03:16:12.055Z,22.9
2018-06-23T03:17:00.889Z,22.9
2018-06-23T03:17:52.679Z,22.9
2018-06-23T03:18:42.479Z,22.9
2018-06-23T03:19:32.830Z,22.9
2018-06-23T03:20:21.964Z,22.9
2018-06-23T03:21:12.668Z,22.9
2018-06-23T03:22:02.430Z,22.8
2018-06-23T03:22:52.724Z,22.9
2018-06-23T03:23:43.258Z,22.9
2018-06-23T03:24:32.288Z,22.9
2018-06-23T03:25:23.093Z,22.9
2018-06-23T03:26:12.976Z,22.9
2018-06-23T03:27:03.336Z,22.8
2018-06-23T03:27:52.827Z,22.9
2018-06-23T03:28:43.427Z,22.8
2018-06-23T03:29:32.671Z,22.9
2018-06-23T03:30:23.916Z,22.9
2018-06-23T03:31:13.182Z,22.8
2018-06-23T03:32:03.498Z,22.9
2018-06-23T03:32:53.262Z,22.9
2018-06-23T03:33:42.998Z,22.8
2018-06-23T03:34:33.321Z,22.9
2018-06-23T03:35:23.683Z,22.8
2018-06-23T03:36:13.737Z,22.8
2018-06-23T03:37:03.050Z,22.8
2018-06-23T03:37:54.478Z,22.8
2018-06-23T03:38:44.444Z,22.8
2018-06-23T03:39:33.410Z,22.8
2018-06-23T03:40:24.063Z,22.8
2018-06-23T03:41:14.669Z,22.8
2018-06-23T03:42:03.887Z,22.8
2018-06-23T03:42:54.988Z,22.8
2018-06-23T03:43:43.935Z,22.9
2018-06-23T03:44:34.330Z,22.9
2018-06-23T03:45:24.733Z,22.8
2018-06-23T03:46:13.917Z,22.8
2018-06-23T03:47:05.132Z,22.8
2018-06-23T03:47:55.196Z,22.8
2018-06-23T03:48:44.426Z,22.8
2018-06-23T03:49:35.267Z,22.8
2018-06-23T03:50:25.082Z,22.8
2018-06-23T03:51:15.209Z,22.8
2018-06-23T03:52:04.402Z,22.8
2018-06-23T03:52:54.988Z,22.8
2018-06-23T03:53:44.552Z,22.8
2018-06-23T03:54:35.385Z,22.8
2018-06-23T03:55:25.736Z,22.8
2018-06-23T03:56:15.268Z,22.8
2018-06-23T03:57:05.306Z,22.8
2018-06-23T03:57:55.355Z,22.8
2018-06-23T03:58:45.749Z,22.8
2018-06-23T03:59:35.791Z,22.8
2018-06-23T04:00:25.574Z,22.8
2018-06-23T04:01:15.650Z,22.8
2018-06-23T04:02:06.253Z,22.8
2018-06-23T04:02:55.776Z,22.8
2018-06-23T04:03:46.367Z,22.8
2018-06-23T04:04:35.872Z,22.8
2018-06-23T04:05:26.238Z,22.8
2018-06-23T04:06:15.441Z,22.8
2018-06-23T04:07:06.220Z,22.8
2018-06-23T04:07:56.112Z,22.8
2018-06-23T04:08:45.921Z,22.8
2018-06-23T04:09:36.240Z,22.8
2018-06-23T04:10:26.574Z,22.8
2018-06-23T04:11:16.124Z,22.8
2018-06-23T04:12:06.723Z,22.8
2018-06-23T04:12:56.527Z,22.8
2018-06-23T04:13:46.546Z,22.8
2018-06-23T04:14:36.346Z,22.8
2018-06-23T04:15:26.948Z,22.8
2018-06-23T04:16:17.745Z,22.8
2018-06-23T04:17:07.925Z,22.8
2018-06-23T04:17:57.165Z,22.8
2018-06-23T04:18:47.100Z,22.8
2018-06-23T04:19:37.284Z,22.8
2018-06-23T04:20:27.041Z,22.8
2018-06-23T04:21:17.153Z,22.8
2018-06-23T04:22:07.952Z,22.8
2018-06-23T04:22:57.496Z,22.8
2018-06-23T04:23:47.334Z,22.8
2018-06-23T04:24:36.800Z,22.8
2018-06-23T04:25:26.835Z,22.8
2018-06-23T04:26:17.972Z,22.8
2018-06-23T04:27:08.341Z,22.8
2018-06-23T04:27:58.610Z,22.8
2018-06-23T04:28:48.082Z,22.8
2018-06-23T04:29:37.973Z,22.8
2018-06-23T04:30:28.058Z,22.8
2018-06-23T04:31:17.842Z,22.8
2018-06-23T04:32:09.024Z,22.8
2018-06-23T04:32:58.696Z,22.8
2018-06-23T04:33:47.779Z,22.8
2018-06-23T04:34:38.885Z,22.8
2018-06-23T04:35:28.453Z,22.8
2018-06-23T04:36:18.817Z,22.8
2018-06-23T04:37:08.559Z,22.8
2018-06-23T04:37:58.452Z,22.8
2018-06-23T04:38:48.764Z,22.8
2018-06-23T04:39:37.941Z,22.8
2018-06-23T04:40:28.352Z,22.8
2018-06-23T04:41:19.652Z,22.8
2018-06-23T04:42:09.743Z,22.8
2018-06-23T04:42:59.040Z,22.8
2018-06-23T04:43:48.772Z,22.8
2018-06-23T04:44:39.760Z,22.8
2018-06-23T04:45:29.411Z,22.8
2018-06-23T04:46:19.476Z,22.8
2018-06-23T04:47:09.261Z,22.8
2018-06-23T04:47:59.546Z,22.8
2018-06-23T04:48:50.244Z,22.8
2018-06-23T04:49:39.507Z,22.8
2018-06-23T04:50:29.774Z,22.8
2018-06-23T04:51:20.141Z,22.8
2018-06-23T04:52:09.321Z,22.8
2018-06-23T04:52:59.701Z,22.8
2018-06-23T04:53:50.011Z,22.8
2018-06-23T04:54:39.841Z,22.8
2018-06-23T04:55:30.427Z,22.8
2018-06-23T04:56:20.747Z,22.8
2018-06-23T04:57:10.277Z,22.8
2018-06-23T04:58:01.413Z,22.8
2018-06-23T04:58:49.872Z,22.8
2018-06-23T04:59:41.065Z,22.8
2018-06-23T05:00:31.783Z,22.8
2018-06-23T05:01:20.362Z,22.8
2018-06-23T05:02:11.180Z,22.8
2018-06-23T05:03:00.714Z,22.8
2018-06-23T05:03:51.057Z,22.7
2018-06-23T05:04:39.446Z,22.7
2018-06-23T05:05:30.661Z,22.7
2018-06-23T05:06:20.495Z,22.7
2018-06-23T05:07:10.819Z,22.7
2018-06-23T05:08:00.584Z,22.7
2018-06-23T05:08:50.788Z,22.7
2018-06-23T05:09:41.305Z,22.7
2018-06-23T05:10:29.960Z,22.7
2018-06-23T05:11:20.635Z,22.7
2018-06-23T05:12:11.472Z,22.7
2018-06-23T05:13:00.638Z,22.7
2018-06-23T05:13:51.308Z,22.6
2018-06-23T05:14:41.396Z,22.7
2018-06-23T05:15:30.691Z,22.7
2018-06-23T05:16:22.333Z,22.6
2018-06-23T05:17:12.082Z,22.7
2018-06-23T05:18:01.613Z,22.7
2018-06-23T05:18:51.640Z,22.6
2018-06-23T05:19:40.661Z,22.6
2018-06-23T05:20:31.942Z,22.6
2018-06-23T05:21:22.679Z,22.7
2018-06-23T05:22:11.737Z,22.6
2018-06-23T05:23:01.763Z,22.6
2018-06-23T05:23:52.387Z,22.6
2018-06-23T05:24:42.164Z,22.6
2018-06-23T05:25:31.638Z,22.6
2018-06-23T05:26:22.299Z,22.6
2018-06-23T05:27:11.873Z,22.6
2018-06-23T05:28:02.662Z,22.6
2018-06-23T05:28:52.521Z,22.6
2018-06-23T05:29:41.706Z,22.6
2018-06-23T05:30:33.073Z,22.6
2018-06-23T05:31:22.968Z,22.6
2018-06-23T05:32:12.126Z,22.6
2018-06-23T05:33:02.246Z,22.6
2018-06-23T05:33:52.035Z,22.6
2018-06-23T05:34:42.635Z,22.6
2018-06-23T05:35:32.449Z,22.6
2018-06-23T05:36:23.332Z,22.6
2018-06-23T05:37:13.503Z,22.6
2018-06-23T05:38:03.198Z,22.6
2018-06-23T05:38:53.499Z,22.6
2018-06-23T05:39:42.757Z,22.6
2018-06-23T05:40:33.134Z,22.6
2018-06-23T05:41:23.476Z,22.6
2018-06-23T05:42:12.387Z,22.6
2018-06-23T05:43:03.585Z,22.6
2018-06-23T05:43:53.378Z,22.6
2018-06-23T05:44:42.993Z,22.6
2018-06-23T05:45:33.772Z,22.6
2018-06-23T05:46:23.010Z,22.6
2018-06-23T05:47:14.164Z,22.6
2018-06-23T05:48:03.900Z,22.6
2018-06-23T05:48:54.321Z,22.6
2018-06-23T05:49:44.836Z,22.6
2018-06-23T05:50:33.467Z,22.6
2018-06-23T05:51:26.221Z,22.6
2018-06-23T05:52:14.536Z,22.6
2018-06-23T05:53:04.765Z,22.6
2018-06-23T05:53:55.123Z,22.6
2018-06-23T05:54:44.603Z,22.6
2018-06-23T05:55:34.767Z,22.6
2018-06-23T05:56:25.360Z,22.6
2018-06-23T05:57:15.389Z,22.6
2018-06-23T05:58:04.035Z,22.6
2018-06-23T05:58:55.507Z,22.6
2018-06-23T05:59:45.594Z,22.6
2018-06-23T06:00:35.430Z,22.6
2018-06-23T06:01:24.550Z,22.6
2018-06-23T06:02:15.512Z,22.6
2018-06-23T06:03:05.537Z,22.5
2018-06-23T06:03:55.630Z,22.6
2018-06-23T06:04:45.756Z,22.5
2018-06-23T06:05:35.434Z,22.5
2018-06-23T06:06:25.246Z,22.5
2018-06-23T06:07:16.180Z,22.5
2018-06-23T06:08:06.199Z,22.5
2018-06-23T06:08:56.266Z,22.5
2018-06-23T06:09:45.767Z,22.5
2018-06-23T06:10:35.522Z,22.5
2018-06-23T06:11:26.167Z,22.5
2018-06-23T06:12:16.248Z,22.5
2018-06-23T06:13:06.346Z,22.5
2018-06-23T06:13:56.385Z,22.5
2018-06-23T06:14:45.867Z,22.5
2018-06-23T06:15:36.231Z,22.5
2018-06-23T06:16:26.531Z,22.5
2018-06-23T06:17:16.881Z,22.5
2018-06-23T06:18:06.663Z,22.5
2018-06-23T06:18:56.427Z,22.5
2018-06-23T06:19:47.035Z,22.5
2018-06-23T06:20:36.847Z,22.5
2018-06-23T06:21:26.617Z,22.5
2018-06-23T06:22:16.410Z,22.5
2018-06-23T06:23:06.463Z,22.4
2018-06-23T06:23:58.587Z,22.5
2018-06-23T06:24:47.124Z,22.5
2018-06-23T06:25:36.391Z,22.4
2018-06-23T06:26:27.259Z,22.4
2018-06-23T06:27:17.653Z,22.4
2018-06-23T06:28:07.368Z,22.5
2018-06-23T06:28:57.628Z,22.4
2018-06-23T06:29:46.730Z,22.5
2018-06-23T06:30:37.890Z,22.4
2018-06-23T06:31:27.946Z,22.5
2018-06-23T06:32:17.170Z,22.5
2018-06-23T06:33:07.545Z,22.4
2018-06-23T06:33:57.612Z,22.4
2018-06-23T06:34:48.233Z,22.4
2018-06-23T06:35:38.388Z,22.4
2018-06-23T06:36:27.208Z,22.4
2018-06-23T06:37:17.589Z,22.4
2018-06-23T06:38:07.096Z,22.4
2018-06-23T06:38:58.598Z,22.4
2018-06-23T06:39:48.598Z,22.4
2018-06-23T06:40:38.708Z,22.4
2018-06-23T06:41:28.711Z,22.4
2018-06-23T06:42:17.935Z,22.4
2018-06-23T06:43:08.569Z,22.4
2018-06-23T06:43:57.792Z,22.4
2018-06-23T06:44:48.855Z,22.4
2018-06-23T06:45:38.510Z,22.4
2018-06-23T06:46:28.032Z,22.4
2018-06-23T06:47:17.564Z,22.4
2018-06-23T06:48:08.699Z,22.4
2018-06-23T06:48:58.414Z,22.4
2018-06-23T06:49:48.264Z,22.4
2018-06-23T06:50:38.595Z,22.4
2018-06-23T06:51:28.622Z,22.4
2018-06-23T06:52:19.312Z,22.4
2018-06-23T06:53:08.762Z,22.4
2018-06-23T06:53:59.659Z,22.4
2018-06-23T06:54:49.495Z,22.4
2018-06-23T06:55:39.744Z,22.4
2018-06-23T06:56:29.641Z,22.4
2018-06-23T06:57:20.836Z,22.4
2018-06-23T06:58:09.129Z,22.4
2018-06-23T06:58:59.987Z,22.4
2018-06-23T06:59:49.349Z,22.4
2018-06-23T07:00:39.613Z,22.4
2018-06-23T07:01:29.675Z,22.4
2018-06-23T07:02:19.734Z,22.4
2018-06-23T07:03:09.808Z,22.4
2018-06-23T07:04:00.111Z,22.4
2018-06-23T07:04:50.468Z,22.4
2018-06-23T07:05:40.536Z,22.4
2018-06-23T07:06:29.790Z,22.4
2018-06-23T07:07:20.667Z,22.4
2018-06-23T07:08:10.447Z,22.4
2018-06-23T07:09:01.289Z,22.4
2018-06-23T07:09:50.352Z,22.4
2018-06-23T07:10:40.374Z,22.4
2018-06-23T07:11:30.153Z,22.4
2018-06-23T07:12:21.076Z,22.4
2018-06-23T07:13:11.133Z,22.4
2018-06-23T07:14:00.877Z,22.4
2018-06-23T07:14:50.699Z,22.4
2018-06-23T07:15:42.251Z,22.4
2018-06-23T07:16:30.815Z,22.4
2018-06-23T07:17:21.444Z,22.4
2018-06-23T07:18:11.221Z,22.4
2018-06-23T07:19:01.512Z,22.4
2018-06-23T07:19:51.049Z,22.4
2018-06-23T07:20:40.787Z,22.4
2018-06-23T07:21:31.423Z,22.4
2018-06-23T07:22:21.244Z,22.4
2018-06-23T07:23:11.272Z,22.4
2018-06-23T07:24:03.994Z,22.4
2018-06-23T07:24:51.188Z,22.4
2018-06-23T07:25:40.887Z,22.4
2018-06-23T07:26:31.795Z,22.4
2018-06-23T07:27:21.367Z,22.4
2018-06-23T07:28:11.400Z,22.4
2018-06-23T07:29:02.247Z,22.4
2018-06-23T07:29:51.759Z,22.4
2018-06-23T07:30:42.818Z,22.4
2018-06-23T07:31:31.877Z,22.4
2018-06-23T07:32:22.260Z,22.4
2018-06-23T07:33:12.357Z,22.4
2018-06-23T07:34:02.092Z,22.4
2018-06-23T07:34:54.636Z,22.4
2018-06-23T07:35:41.654Z,22.4
2018-06-23T07:36:32.584Z,22.4
2018-06-23T07:37:22.661Z,22.4
2018-06-23T07:38:12.378Z,22.4
2018-06-23T07:39:03.036Z,22.4
2018-06-23T07:39:51.974Z,22.4
2018-06-23T07:40:44.078Z,22.4
2018-06-23T07:41:32.717Z,22.4
2018-06-23T07:42:23.074Z,22.4
2018-06-23T07:43:11.984Z,22.4
2018-06-23T07:44:02.627Z,22.4
2018-06-23T07:44:52.376Z,22.4
2018-06-23T07:45:42.748Z,22.4
2018-06-23T07:46:32.397Z,22.4
2018-06-23T07:47:23.818Z,22.4
2018-06-23T07:48:13.159Z,22.4
2018-06-23T07:49:03.498Z,22.4
2018-06-23T07:49:53.263Z,22.4
2018-06-23T07:50:43.728Z,22.4
2018-06-23T07:51:33.711Z,22.4
2018-06-23T07:52:23.736Z,22.4
2018-06-23T07:53:12.746Z,22.4
2018-06-23T07:54:03.316Z,22.4
2018-06-23T07:54:53.659Z,22.4
2018-06-23T07:55:44.048Z,22.4
2018-06-23T07:56:34.072Z,22.4
2018-06-23T07:57:24.395Z,22.4
2018-06-23T07:58:13.595Z,22.4
2018-06-23T07:59:03.934Z,22.4
2018-06-23T07:59:52.912Z,22.4
2018-06-23T08:00:43.845Z,22.4
2018-06-23T08:01:34.555Z,22.4
2018-06-23T08:02:24.460Z,22.4
2018-06-23T08:03:14.285Z,22.4
2018-06-23T08:04:04.645Z,22.4
2018-06-23T08:04:54.647Z,22.4
2018-06-23T08:05:43.905Z,22.4
2018-06-23T08:06:34.845Z,22.4
2018-06-23T08:07:24.304Z,22.4
2018-06-23T08:08:15.202Z,22.4
2018-06-23T08:09:04.480Z,22.4
2018-06-23T08:09:54.493Z,22.4
2018-06-23T08:10:44.854Z,22.4
2018-06-23T08:11:35.236Z,22.4
2018-06-23T08:12:25.003Z,22.4
2018-06-23T08:13:15.518Z,22.4
2018-06-23T08:14:05.377Z,22.4
2018-06-23T08:14:55.424Z,22.4
2018-06-23T08:15:45.157Z,22.4
2018-06-23T08:16:35.522Z,22.4
2018-06-23T08:17:25.676Z,22.4
2018-06-23T08:18:15.936Z,22.4
2018-06-23T08:19:05.425Z,22.4
2018-06-23T08:19:55.563Z,22.4
2018-06-23T08:20:44.766Z,22.4
2018-06-23T08:21:35.945Z,22.4
2018-06-23T08:22:25.971Z,22.4
2018-06-23T08:23:15.224Z,22.4
2018-06-23T08:24:05.919Z,22.4
2018-06-23T08:24:56.750Z,22.4
2018-06-23T08:25:45.745Z,22.4
2018-06-23T08:26:38.408Z,22.4
2018-06-23T08:27:26.678Z,22.4
2018-06-23T08:28:16.237Z,22.4
2018-06-23T08:29:06.449Z,22.4
2018-06-23T08:29:56.877Z,22.4
2018-06-23T08:30:46.592Z,22.4
2018-06-23T08:31:36.720Z,22.4
2018-06-23T08:32:26.461Z,22.3
2018-06-23T08:33:16.775Z,22.3
2018-06-23T08:34:06.550Z,22.3
2018-06-23T08:34:57.136Z,22.3
2018-06-23T08:35:46.409Z,22.3
2018-06-23T08:36:37.056Z,22.3
2018-06-23T08:37:26.909Z,22.3
2018-06-23T08:38:17.139Z,22.3
2018-06-23T08:39:07.243Z,22.3
2018-06-23T08:39:57.547Z,22.3
2018-06-23T08:40:47.394Z,22.3
2018-06-23T08:41:37.671Z,22.3
2018-06-23T08:42:26.923Z,22.3
2018-06-23T08:43:17.785Z,22.3
2018-06-23T08:44:07.334Z,22.3
2018-06-23T08:44:57.658Z,22.3
2018-06-23T08:45:47.724Z,22.3
2018-06-23T08:46:38.076Z,22.3
2018-06-23T08:47:27.590Z,22.3
2018-06-23T08:48:18.239Z,22.3
2018-06-23T08:49:09.107Z,22.4
2018-06-23T08:49:57.809Z,22.3
2018-06-23T08:50:47.837Z,22.4
2018-06-23T08:51:37.330Z,22.4
2018-06-23T08:52:27.939Z,22.4
2018-06-23T08:53:18.000Z,22.4
2018-06-23T08:54:07.488Z,22.4
2018-06-23T08:54:58.418Z,22.4
2018-06-23T08:55:48.712Z,22.4
2018-06-23T08:56:37.995Z,22.4
2018-06-23T08:57:28.877Z,22.4
2018-06-23T08:58:18.130Z,22.3
2018-06-23T08:59:08.221Z,22.3
2018-06-23T08:59:58.502Z,22.4
2018-06-23T09:00:49.123Z,22.4
2018-06-23T09:01:39.253Z,22.4
2018-06-23T09:02:29.256Z,22.4
2018-06-23T09:03:18.753Z,22.4
2018-06-23T09:04:09.143Z,22.4
2018-06-23T09:04:59.412Z,22.4
2018-06-23T09:05:49.547Z,22.4
2018-06-23T09:06:38.978Z,22.3
2018-06-23T09:07:28.231Z,22.3
2018-06-23T09:08:18.852Z,22.4
2018-06-23T09:09:09.818Z,22.4
2018-06-23T09:09:58.787Z,22.4
2018-06-23T09:10:48.464Z,22.4
2018-06-23T09:11:39.937Z,22.3
2018-06-23T09:12:30.112Z,22.3
2018-06-23T09:13:19.547Z,22.4
2018-06-23T09:14:09.828Z,22.3
2018-06-23T09:14:59.952Z,22.4
2018-06-23T09:15:50.240Z,22.4
2018-06-23T09:16:40.438Z,22.4
2018-06-23T09:17:29.886Z,22.4
2018-06-23T09:18:19.625Z,22.4
2018-06-23T09:19:09.676Z,22.4
2018-06-23T09:20:00.323Z,22.4
2018-06-23T09:20:50.644Z,22.4
2018-06-23T09:21:39.592Z,22.4
2018-06-23T09:22:30.261Z,22.4
2018-06-23T09:23:20.069Z,22.4
2018-06-23T09:24:10.602Z,22.4
2018-06-23T09:25:00.189Z,22.4
2018-06-23T09:25:51.313Z,22.4
2018-06-23T09:26:40.848Z,22.4
2018-06-23T09:27:30.812Z,22.4
2018-06-23T09:28:20.616Z,22.4
2018-06-23T09:29:10.952Z,22.4
2018-06-23T09:30:01.061Z,22.4
2018-06-23T09:30:50.547Z,22.4
2018-06-23T09:31:41.144Z,22.4
2018-06-23T09:32:31.521Z,22.4
2018-06-23T09:33:21.605Z,22.4
2018-06-23T09:34:11.083Z,22.4
2018-06-23T09:35:01.138Z,22.4
2018-06-23T09:35:51.778Z,22.4
2018-06-23T09:36:41.070Z,22.4
2018-06-23T09:37:31.607Z,22.4
2018-06-23T09:38:21.386Z,22.4
2018-06-23T09:39:11.722Z,22.4
2018-06-23T09:40:01.320Z,22.4
2018-06-23T09:40:50.771Z,22.4
2018-06-23T09:41:40.584Z,22.4
2018-06-23T09:42:30.874Z,22.4
2018-06-23T09:43:21.769Z,22.4
2018-06-23T09:44:11.286Z,22.4
2018-06-23T09:45:00.814Z,22.4
2018-06-23T09:45:53.216Z,22.4
2018-06-23T09:46:41.754Z,22.4
2018-06-23T09:47:32.138Z,22.4
2018-06-23T09:48:21.856Z,22.4
2018-06-23T09:49:11.788Z,22.4
2018-06-23T09:50:02.030Z,22.4
2018-06-23T09:50:52.356Z,22.4
2018-06-23T09:51:41.582Z,22.4
2018-06-23T09:52:32.498Z,22.4
2018-06-23T09:53:21.688Z,22.4
2018-06-23T09:54:12.603Z,22.4
2018-06-23T09:55:02.956Z,22.4
2018-06-23T09:55:53.071Z,22.4
2018-06-23T09:56:42.266Z,22.4
2018-06-23T09:57:32.312Z,22.4
2018-06-23T09:58:22.666Z,22.4
2018-06-23T09:59:12.995Z,22.4
2018-06-23T10:00:03.302Z,22.4
2018-06-23T10:00:53.131Z,22.4
2018-06-23T10:01:42.910Z,22.4
2018-06-23T10:02:33.250Z,22.4
2018-06-23T10:03:24.010Z,22.4
2018-06-23T10:04:13.111Z,22.4
2018-06-23T10:05:02.880Z,22.4
2018-06-23T10:05:53.311Z,22.4
2018-06-23T10:06:44.077Z,22.4
2018-06-23T10:07:33.569Z,22.4
2018-06-23T10:08:23.759Z,22.4
2018-06-23T10:09:13.777Z,22.5
2018-06-23T10:10:04.077Z,22.4
2018-06-23T10:10:53.872Z,22.4
2018-06-23T10:11:43.126Z,22.4
2018-06-23T10:12:33.776Z,22.4
2018-06-23T10:13:24.046Z,22.4
2018-06-23T10:14:14.395Z,22.4
2018-06-23T10:15:03.861Z,22.4
2018-06-23T10:15:54.563Z,22.4
2018-06-23T10:16:43.538Z,22.4
2018-06-23T10:17:34.625Z,22.4
2018-06-23T10:18:23.508Z,22.4
2018-06-23T10:19:14.221Z,22.4
2018-06-23T10:20:03.829Z,22.4
2018-06-23T10:20:54.888Z,22.4
2018-06-23T10:21:45.106Z,22.4
2018-06-23T10:22:35.311Z,22.4
2018-06-23T10:23:24.806Z,22.5
2018-06-23T10:24:14.621Z,22.5
2018-06-23T10:25:04.917Z,22.4
2018-06-23T10:25:54.961Z,22.4
2018-06-23T10:26:45.012Z,22.4
2018-06-23T10:27:35.721Z,22.4
2018-06-23T10:28:25.442Z,22.5
2018-06-23T10:29:15.506Z,22.4
2018-06-23T10:30:03.937Z,22.4
2018-06-23T10:30:55.086Z,22.4
2018-06-23T10:31:45.700Z,22.4
2018-06-23T10:32:35.268Z,22.4
2018-06-23T10:33:25.785Z,22.4
2018-06-23T10:34:16.162Z,22.4
2018-06-23T10:35:05.174Z,22.4
2018-06-23T10:35:56.025Z,22.4
2018-06-23T10:36:46.091Z,22.4
2018-06-23T10:37:36.431Z,22.5
2018-06-23T10:38:26.080Z,22.4
2018-06-23T10:39:16.310Z,22.5
2018-06-23T10:40:08.679Z,22.5
2018-06-23T10:40:55.556Z,22.4
2018-06-23T10:41:46.451Z,22.4
2018-06-23T10:42:36.798Z,22.5
2018-06-23T10:43:26.006Z,22.5
2018-06-23T10:44:15.902Z,22.5
2018-06-23T10:45:06.212Z,22.5
2018-06-23T10:45:56.072Z,22.5
2018-06-23T10:46:46.105Z,22.5
2018-06-23T10:47:36.043Z,22.5
2018-06-23T10:48:25.659Z,22.4
2018-06-23T10:49:16.562Z,22.5
2018-06-23T10:50:06.814Z,22.5
2018-06-23T10:50:56.311Z,22.5
2018-06-23T10:51:46.091Z,22.5
2018-06-23T10:52:37.018Z,22.5
2018-06-23T10:53:27.098Z,22.5
2018-06-23T10:54:17.227Z,22.5
2018-06-23T10:55:07.221Z,22.5
2018-06-23T10:55:56.738Z,22.5
2018-06-23T10:56:47.609Z,22.4
2018-06-23T10:57:37.140Z,22.4
2018-06-23T10:58:27.449Z,22.4
2018-06-23T10:59:17.059Z,22.4
2018-06-23T11:00:06.737Z,22.4
2018-06-23T11:00:58.160Z,22.4
2018-06-23T11:01:47.729Z,22.4
2018-06-23T11:02:37.719Z,22.4
2018-06-23T11:03:28.112Z,22.4
2018-06-23T11:04:18.168Z,22.4
2018-06-23T11:05:08.962Z,22.4
2018-06-23T11:05:58.638Z,22.4
2018-06-23T11:06:48.159Z,22.3
2018-06-23T11:07:38.145Z,22.3
2018-06-23T11:08:28.458Z,22.3
2018-06-23T11:09:18.509Z,22.3
2018-06-23T11:10:08.141Z,22.3